Latest Weather Observations for Brisbane

IDQ60901

Issued at 11:31 pm EST Sunday 1 May 2016 (issued every 10 minutes, with the page automatically refreshed every 10 minutes)

About weather observations | Map of Brisbane area stations | Latest observations for Brisbane area | Other Formats
Station Details ID: 040913 Name: BRISBANE Lat: -27.48 Lon: 153.04 Height: 8.13 m
Data from the previous 72 hours. | See also: Recent months at Brisbane
Date/Time
EST
Tmp

°C
App
Tmp
°C
Dew
Point
°C
Rel
Hum
%
Delta-T

°C
Wind Press
QNH
hPa
Press
MSL
hPa
Rain
since
9 am
mm
Dir
 
Spd
km/h
Gust
km/h
Spd
kts
Gust
kts
01/11:30pm 20.8 24.5 20.0 95 0.5 CALM 0 4 0 2 1016.4 1016.4 14.8
01/11:00pm 21.0 24.9 20.3 96 0.4 CALM 0 0 0 0 1017.0 1017.0 14.8
01/10:30pm 20.6 24.2 19.8 95 0.5 CALM 0 0 0 0 1017.1 1017.1 14.8
01/10:00pm 20.5 24.1 19.7 95 0.5 CALM 0 0 0 0 1017.0 1017.0 14.8
01/09:30pm 20.5 24.0 19.5 94 0.6 CALM 0 0 0 0 1017.1 1017.1 14.8
01/09:00pm 20.6 24.1 19.6 94 0.6 CALM 0 0 0 0 1017.0 1017.0 14.8
01/08:30pm 20.9 24.6 19.9 94 0.6 CALM 0 4 0 2 1017.1 1017.1 14.8
01/08:00pm 21.2 24.9 20.0 93 0.8 CALM 0 2 0 1 1017.1 1017.1 14.8
01/07:30pm 20.9 24.5 19.7 93 0.8 CALM 0 2 0 1 1016.6 1016.6 14.8
01/07:00pm 21.2 24.8 19.8 92 0.9 CALM 0 0 0 0 1016.3 1016.3 14.8
01/06:30pm 21.6 25.0 20.1 91 1.0 ENE 2 4 1 2 1016.0 1016.0 14.8
01/06:00pm 21.6 24.7 19.5 88 1.3 E 2 4 1 2 1015.8 1015.8 14.8
01/05:30pm 22.3 25.9 19.7 85 1.7 CALM 0 0 0 0 1015.7 1015.7 14.8
01/05:00pm 23.1 26.1 20.1 83 1.9 E 4 6 2 3 1015.6 1015.6 14.8
01/04:30pm 23.7 27.4 20.0 80 2.4 CALM 0 0 0 0 1015.6 1015.6 14.8
01/04:00pm 23.9 27.2 20.0 79 2.5 E 2 7 1 4 1015.4 1015.4 14.8
01/03:30pm 23.9 27.2 20.0 79 2.5 SE 2 7 1 4 1015.5 1015.5 14.8
01/03:00pm 22.8 26.1 20.7 88 1.4 W 4 7 2 4 1015.6 1015.6 14.8
01/02:30pm 22.7 26.4 20.8 89 1.2 NW 2 6 1 3 1015.5 1015.5 14.8
01/02:00pm 22.0 24.3 20.6 92 0.9 E 9 15 5 8 1015.3 1015.3 14.8
01/01:30pm 21.5 24.7 19.8 90 1.1 SW 2 6 1 3 1016.2 1016.2 14.6
01/01:00pm 21.8 24.5 20.3 91 1.0 WSW 6 9 3 5 1016.5 1016.5 13.0
01/12:30pm 22.1 25.0 20.7 92 0.9 WSW 6 9 3 5 1016.9 1016.9 12.0
01/12:00pm 22.4 25.8 21.0 92 0.9 SSW 4 9 2 5 1017.2 1017.2 10.6
01/11:30am 22.5 26.1 21.3 93 0.8 SSW 4 9 2 5 1017.7 1017.7 9.6
01/11:00am 22.2 25.3 21.0 93 0.8 S 6 9 3 5 1018.1 1018.1 7.0
01/10:30am 22.1 25.3 20.6 91 1.0 SE 4 9 2 5 1018.8 1018.8 4.2
01/10:00am 22.5 25.9 21.0 91 1.0 SSW 4 7 2 4 1018.9 1018.9 1.4
01/09:30am 22.7 26.4 21.5 93 0.8 S 4 7 2 4 1019.2 1019.2 1.0
01/09:00am 22.4 25.8 21.0 92 0.9 SSE 4 6 2 3 1019.6 1019.6 1.4
01/08:30am 22.5 26.4 21.1 92 0.9 S 2 4 1 2 1019.3 1019.3 0.6
01/08:00am 22.2 25.5 20.7 91 1.0 SE 4 6 2 3 1019.2 1019.2 0.6
01/07:30am 22.1 26.0 20.4 90 1.1 CALM 0 0 0 0 1019.1 1019.1 0.4
01/07:00am 21.9 25.7 20.2 90 1.1 CALM 0 0 0 0 1019.0 1019.0 0.2
01/06:30am 22.2 26.2 20.5 90 1.1 CALM 0 0 0 0 1018.7 1018.7 0.0
01/06:00am 22.2 25.7 20.3 89 1.2 ENE 2 4 1 2 1018.6 1018.6 0.0
01/05:30am 22.2 25.3 20.3 89 1.2 ENE 4 6 2 3 1018.1 1018.1 0.0
01/05:00am 22.2 25.7 20.3 89 1.2 NE 2 7 1 4 1018.1 1018.1 0.0
01/04:30am 22.3 25.5 20.6 90 1.1 N 4 7 2 4 1017.9 1017.9 0.0
01/04:00am 22.6 25.8 20.5 88 1.4 NNW 4 7 2 4 1017.7 1017.7 0.0
01/03:30am 22.7 25.9 20.6 88 1.4 NNW 4 7 2 4 1017.9 1017.9 0.0
01/03:00am 22.7 26.1 20.2 86 1.6 N 2 6 1 3 1017.9 1017.9 0.0
01/02:30am 22.9 26.5 20.6 87 1.5 NNW 2 2 1 1 1017.8 1017.8 0.0
01/02:00am 22.9 26.6 20.8 88 1.4 W 2 4 1 2 1018.2 1018.2 0.0
01/01:30am 22.9 26.9 20.6 87 1.5 CALM 0 0 0 0 1018.5 1018.5 0.0
01/01:00am 23.0 27.1 20.7 87 1.5 CALM 0 0 0 0 1018.7 1018.7 0.0
01/12:30am 23.1 26.7 20.6 86 1.6 N 2 6 1 3 1019.0 1019.0 0.0
01/12:00am 23.2 26.9 20.7 86 1.6 NE 2 4 1 2 1019.2 1019.2 0.0
 
Date/Time
EST
Tmp

°C
App
Tmp
°C
Dew
Point
°C
Rel
Hum
%
Delta-T

°C
Wind Press
QNH
hPa
Press
MSL
hPa
Rain
since
9 am
mm
Dir
 
Spd
km/h
Gust
km/h
Spd
kts
Gust
kts
30/11:30pm 23.3 27.0 20.8 86 1.6 NNE 2 6 1 3 1019.5 1019.5 0.0
30/11:00pm 23.4 26.6 20.5 84 1.9 NNE 4 7 2 4 1019.6 1019.6 0.0
30/10:30pm 23.6 26.9 20.7 84 1.9 NNE 4 7 2 4 1019.9 1019.9 0.0
30/10:00pm 23.6 26.4 20.5 83 2.0 NE 6 11 3 6 1020.1 1020.1 0.0
30/09:30pm 23.9 26.5 20.4 81 2.3 NE 7 15 4 8 1020.2 1020.2 0.0
30/09:00pm 24.1 27.1 20.8 82 2.2 NE 6 13 3 7 1020.2 1020.2 0.0
30/08:30pm 24.3 27.1 20.8 81 2.3 ENE 7 17 4 9 1020.1 1020.1 0.0
30/08:00pm 24.4 27.4 20.9 81 2.3 ENE 6 9 3 5 1019.9 1019.9 0.0
30/07:30pm 24.4 27.3 20.7 80 2.4 ENE 6 9 3 5 1019.6 1019.6 0.0
30/07:00pm 24.4 27.2 20.5 79 2.5 ENE 6 9 3 5 1019.4 1019.4 0.0
30/06:30pm 24.4 27.0 20.5 79 2.5 ENE 7 9 4 5 1019.2 1019.2 0.0
30/06:00pm 24.6 27.1 20.3 77 2.8 ENE 7 13 4 7 1019.1 1019.1 0.0
30/05:30pm 24.8 27.2 20.1 75 3.0 ENE 7 13 4 7 1019.1 1019.1 0.0
30/05:00pm 25.0 27.3 19.8 73 3.4 ENE 7 15 4 8 1018.6 1018.6 0.0
30/04:30pm 25.5 27.6 20.1 72 3.5 ENE 9 13 5 7 1018.3 1018.3 0.0
30/04:00pm 26.0 27.6 19.2 66 4.4 ENE 9 15 5 8 1018.3 1018.3 0.0
30/03:30pm 26.5 27.9 18.6 62 5.0 ENE 9 17 5 9 1018.0 1018.0 0.0
30/03:00pm 27.4 28.7 19.2 61 5.3 ENE 11 19 6 10 1018.0 1018.0 0.0
30/02:30pm 28.0 29.5 19.0 58 5.8 ENE 9 15 5 8 1018.1 1018.1 0.0
30/02:00pm 28.1 29.8 18.5 56 6.1 NE 7 15 4 8 1018.2 1018.2 0.0
30/01:30pm 28.3 30.0 18.4 55 6.3 NNE 7 17 4 9 1018.2 1018.2 0.0
30/01:00pm 28.5 30.2 18.6 55 6.3 NE 7 17 4 9 1018.6 1018.6 0.0
30/12:30pm 28.5 30.1 18.3 54 6.5 NE 7 13 4 7 1019.0 1019.0 0.0
30/12:00pm 28.4 30.3 18.5 55 6.3 NE 6 13 3 7 1019.6 1019.6 0.0
30/11:30am 28.2 30.9 19.4 59 5.7 N 4 6 2 3 1020.2 1020.2 0.0
30/11:00am 26.4 29.4 19.3 65 4.6 NE 2 4 1 2 1020.7 1020.7 0.0
30/10:30am 26.7 29.7 20.1 67 4.3 NE 4 6 2 3 1021.3 1021.3 0.0
30/10:00am 25.7 28.9 19.8 70 3.8 S 2 4 1 2 1021.7 1021.7 0.0
30/09:30am 24.3 26.8 19.1 73 3.3 WSW 4 9 2 5 1021.9 1021.9 0.0
30/09:00am 23.5 25.9 19.6 79 2.5 W 6 9 3 5 1022.0 1022.0 2.6
30/08:30am 22.1 24.8 19.5 85 1.7 SW 4 9 2 5 1021.9 1021.9 2.6
30/08:00am 20.9 23.4 19.0 89 1.2 SW 4 7 2 4 1021.8 1021.8 2.6
30/07:30am 20.7 23.7 19.2 91 0.9 WSW 2 6 1 3 1021.5 1021.5 2.6
30/07:00am 20.4 23.3 19.1 92 0.8 SW 2 6 1 3 1021.3 1021.3 2.6
30/06:30am 20.0 22.6 18.3 90 1.1 W 2 4 1 2 1021.0 1021.0 2.6
30/06:00am 20.2 22.6 18.9 92 0.8 SW 4 9 2 5 1020.9 1020.9 2.6
30/05:30am 20.2 23.0 18.9 92 0.8 WSW 2 4 1 2 1020.7 1020.7 2.6
30/05:00am 20.2 23.4 18.9 92 0.8 CALM 0 2 0 1 1020.5 1020.5 2.6
30/04:30am 20.2 23.1 19.0 93 0.8 WSW 2 4 1 2 1020.2 1020.2 2.6
30/04:00am 20.4 23.4 19.2 93 0.8 WSW 2 4 1 2 1020.2 1020.2 2.6
30/03:30am 20.2 23.0 18.9 92 0.8 WSW 2 6 1 3 1020.2 1020.2 2.4
30/03:00am 20.3 23.1 18.8 91 0.9 W 2 6 1 3 1020.3 1020.3 2.4
30/02:30am 20.5 23.1 19.2 92 0.8 WSW 4 6 2 3 1020.4 1020.4 2.4
30/02:00am 20.6 23.6 19.3 92 0.8 WSW 2 4 1 2 1020.8 1020.8 2.4
30/01:30am 20.6 23.7 19.4 93 0.8 SW 2 4 1 2 1021.0 1021.0 2.4
30/01:00am 20.6 24.0 19.4 93 0.8 CALM 0 0 0 0 1021.2 1021.2 2.4
30/12:30am 20.6 24.0 19.4 93 0.8 CALM 0 0 0 0 1021.5 1021.5 2.4
30/12:00am 20.5 24.0 19.5 94 0.6 CALM 0 4 0 2 1021.7 1021.7 2.4
 
Date/Time
EST
Tmp

°C
App
Tmp
°C
Dew
Point
°C
Rel
Hum
%
Delta-T

°C
Wind Press
QNH
hPa
Press
MSL
hPa
Rain
since
9 am
mm
Dir
 
Spd
km/h
Gust
km/h
Spd
kts
Gust
kts
29/11:30pm 20.0 23.2 18.8 93 0.8 CALM 0 0 0 0 1022.0 1022.0 2.4
29/11:00pm 20.1 23.3 18.9 93 0.7 CALM 0 0 0 0 1022.2 1022.2 2.4
29/10:30pm 20.2 23.5 19.0 93 0.8 CALM 0 0 0 0 1022.5 1022.5 2.4
29/10:00pm 20.3 23.6 19.1 93 0.8 CALM 0 0 0 0 1022.5 1022.5 2.4
29/09:30pm 20.2 23.3 18.7 91 0.9 CALM 0 0 0 0 1022.5 1022.5 2.0
29/09:00pm 20.6 23.4 18.9 90 1.1 SSE 2 6 1 3 1022.4 1022.4 2.0
29/08:30pm 20.6 23.5 19.1 91 0.9 SSE 2 7 1 4 1022.2 1022.2 2.0
29/08:00pm 20.4 23.6 18.9 91 0.9 CALM 0 2 0 1 1022.3 1022.3 2.0
29/07:30pm 20.4 23.6 18.9 91 0.9 CALM 0 0 0 0 1022.0 1022.0 2.0
29/07:00pm 20.7 24.1 19.4 92 0.8 CALM 0 0 0 0 1021.7 1021.7 2.0
29/06:30pm 20.9 24.2 19.2 90 1.1 CALM 0 0 0 0 1021.5 1021.5 2.0
29/06:00pm 21.1 24.3 18.9 87 1.4 CALM 0 0 0 0 1021.3 1021.3 2.0
29/05:30pm 21.9 24.9 19.3 85 1.7 E 2 4 1 2 1021.0 1021.0 2.0
29/05:00pm 22.6 25.1 19.9 85 1.7 E 6 7 3 4 1020.8 1020.8 2.0
29/04:30pm 22.6 26.1 20.3 87 1.5 E 2 6 1 3 1020.5 1020.5 2.0
29/04:00pm 22.0 24.2 19.7 87 1.5 E 7 13 4 7 1020.3 1020.3 1.8
29/03:30pm 24.5 25.8 19.3 73 3.3 E 11 19 6 10 1020.2 1020.2 0.2
29/03:00pm 23.9 25.4 19.0 74 3.1 E 9 13 5 7 1020.3 1020.3 0.2
29/02:30pm 25.4 26.6 18.3 65 4.5 E 9 20 5 11 1020.2 1020.2 0.2
29/02:00pm 25.3 26.8 18.0 64 4.6 E 7 11 4 6 1020.4 1020.4 0.2
29/01:30pm 25.5 27.2 18.4 65 4.5 E 7 11 4 6 1020.5 1020.5 0.2
29/01:00pm 25.0 26.2 18.2 66 4.3 E 9 13 5 7 1020.7 1020.7 0.2
29/12:30pm 24.6 26.1 19.0 71 3.6 E 9 15 5 8 1021.1 1021.1 0.2
29/12:00pm 25.2 27.6 19.6 71 3.6 ESE 6 13 3 7 1021.6 1021.6 0.2
29/11:30am 24.3 26.5 19.1 73 3.3 ESE 6 9 3 5 1022.3 1022.3 0.2
29/11:00am 23.4 25.9 19.1 77 2.7 SSE 4 6 2 3 1023.1 1023.1 0.2
29/10:30am 21.9 24.4 19.1 84 1.8 SW 4 6 2 3 1023.8 1023.8 0.2
29/10:00am 20.5 22.6 18.1 86 1.5 SSW 4 7 2 4 1024.5 1024.5 0.2
29/09:30am 20.3 22.3 17.9 86 1.5 SW 4 6 2 3 1024.3 1024.3 0.2
29/09:00am 19.5 21.5 16.9 85 1.6 SSW 2 6 1 3 1024.5 1024.5 0.6
29/08:30am 19.1 20.3 16.9 87 1.3 WSW 6 9 3 5 1024.2 1024.2 0.6
29/08:00am 18.5 19.9 16.5 88 1.2 WSW 4 9 2 5 1024.3 1024.3 0.6
29/07:30am 18.5 19.7 15.9 85 1.5 WNW 4 7 2 4 1024.2 1024.2 0.4
29/07:00am 18.4 20.1 16.2 87 1.3 WSW 2 6 1 3 1023.6 1023.6 0.4
29/06:30am 18.3 19.6 16.1 87 1.3 SSW 4 9 2 5 1023.3 1023.3 0.4
29/06:00am 18.1 19.4 16.1 88 1.2 SW 4 7 2 4 1023.2 1023.2 0.4
29/05:30am 17.9 19.2 16.1 89 1.1 WSW 4 9 2 5 1022.9 1022.9 0.4
29/05:00am 17.4 18.5 15.6 89 1.1 SW 4 7 2 4 1022.4 1022.4 0.4
29/04:30am 17.4 18.9 15.7 90 1.0 WSW 2 6 1 3 1022.3 1022.3 0.4
29/04:00am 17.5 19.4 15.8 90 1.0 CALM 0 2 0 1 1022.3 1022.3 0.4
29/03:30am 17.7 19.4 16.2 91 0.9 WSW 2 6 1 3 1022.2 1022.2 0.4
29/03:00am 18.1 19.6 16.6 91 0.9 WSW 4 7 2 4 1022.3 1022.3 0.4
29/02:30am 18.3 20.2 16.8 91 0.9 WSW 2 4 1 2 1022.6 1022.6 0.4
29/02:00am 18.3 19.9 16.8 91 0.9 WSW 4 7 2 4 1022.7 1022.7 0.4
29/01:30am 18.1 19.6 16.6 91 0.9 WSW 4 6 2 3 1023.0 1023.0 0.4
29/01:00am 18.3 19.9 17.0 92 0.8 W 4 7 2 4 1023.1 1023.1 0.4
29/12:30am 18.2 20.2 17.0 93 0.7 WSW 2 4 1 2 1023.1 1023.1 0.4
29/12:00am 17.6 19.6 16.1 91 0.9 CALM 0 2 0 1 1023.2 1023.2 0.4

Latest Capital City Observations: Canberra | Sydney | Melbourne | Brisbane | Adelaide | Perth | Hobart | Darwin

Other Formats:

Comma delimited format used in spreadsheet applications
http://www.bom.gov.au/fwo/IDQ60901/IDQ60901.94576.axf

JavaScript Object Notation format (JSON) in row-major order
http://www.bom.gov.au/fwo/IDQ60901/IDQ60901.94576.json